createdAt,value
2023-05-09T00:00:49.142Z,17.20
2023-05-09T00:03:17.163Z,16.30
2023-05-09T00:05:46.200Z,16.20
2023-05-09T00:08:14.130Z,15.30
2023-05-09T00:10:42.017Z,13.60
2023-05-09T00:13:09.841Z,13.60
2023-05-09T00:15:37.819Z,13.10
2023-05-09T00:18:06.016Z,13.30
2023-05-09T00:20:34.197Z,13.70
2023-05-09T00:23:02.050Z,14.50
2023-05-09T00:25:30.015Z,14.30
2023-05-09T00:27:57.953Z,13.20
2023-05-09T00:30:26.047Z,13.60
2023-05-09T00:32:54.030Z,13.40
2023-05-09T00:35:21.977Z,14.20
2023-05-09T00:37:49.854Z,14.60
2023-05-09T00:40:17.644Z,15.20
2023-05-09T00:42:45.618Z,13.80
2023-05-09T00:45:13.647Z,15.30
2023-05-09T00:47:41.641Z,14.30
2023-05-09T00:50:10.521Z,15.50
2023-05-09T00:52:38.810Z,13.00
2023-05-09T00:55:08.374Z,12.20
2023-05-09T00:57:36.717Z,13.20
2023-05-09T01:00:05.548Z,14.20
2023-05-09T01:02:33.614Z,14.00
2023-05-09T01:05:01.972Z,14.00
2023-05-09T01:07:38.278Z,13.90
2023-05-09T01:10:16.906Z,14.30
2023-05-09T01:12:54.780Z,12.70
2023-05-09T01:15:47.157Z,13.70
2023-05-09T01:18:19.433Z,13.10
2023-05-09T01:20:58.678Z,12.70
2023-05-09T01:23:36.275Z,12.50
2023-05-09T01:26:49.952Z,12.30
2023-05-09T01:31:56.652Z,12.00
2023-05-09T01:34:27.208Z,12.50
2023-05-09T01:36:59.794Z,13.20
2023-05-09T01:39:28.821Z,12.40
2023-05-09T01:41:58.329Z,13.30
2023-05-09T01:44:26.869Z,12.80
2023-05-09T01:46:57.589Z,14.40
2023-05-09T01:49:26.368Z,14.70
2023-05-09T01:51:54.192Z,14.20
2023-05-09T01:54:22.732Z,13.80
2023-05-09T01:56:51.240Z,14.20
2023-05-09T01:59:19.396Z,13.40
2023-05-09T02:01:48.164Z,13.50
2023-05-09T02:04:16.516Z,13.50
2023-05-09T02:06:44.739Z,13.90
2023-05-09T02:09:13.125Z,14.90
2023-05-09T02:11:40.971Z,14.10
2023-05-09T02:14:08.972Z,14.30
2023-05-09T02:16:39.519Z,13.70
2023-05-09T02:19:07.365Z,14.20
2023-05-09T02:21:35.797Z,13.70
2023-05-09T02:24:03.925Z,14.50
2023-05-09T02:26:31.908Z,14.40
2023-05-09T02:29:01.186Z,14.50
2023-05-09T02:31:29.755Z,14.40
2023-05-09T02:33:57.795Z,14.30
2023-05-09T02:36:25.653Z,14.10
2023-05-09T02:38:53.727Z,13.90
2023-05-09T02:41:22.137Z,14.40
2023-05-09T02:43:49.932Z,14.10
2023-05-09T02:46:17.927Z,15.00
2023-05-09T02:48:45.910Z,14.90
2023-05-09T02:51:13.738Z,15.40
2023-05-09T02:53:41.591Z,13.70
2023-05-09T02:56:10.899Z,15.40
2023-05-09T02:58:38.672Z,14.70
2023-05-09T03:01:06.490Z,14.60
2023-05-09T03:03:34.728Z,15.40
2023-05-09T03:06:02.622Z,14.70
2023-05-09T03:08:31.156Z,15.70
2023-05-09T03:10:58.984Z,14.60
2023-05-09T03:13:26.905Z,15.30
2023-05-09T03:15:54.854Z,14.60
2023-05-09T03:18:22.839Z,15.90
2023-05-09T03:20:51.356Z,15.40
2023-05-09T03:23:19.114Z,16.30
2023-05-09T03:25:46.885Z,15.90
2023-05-09T03:28:14.754Z,17.00
2023-05-09T03:30:42.620Z,15.30
2023-05-09T03:33:10.683Z,16.60
2023-05-09T03:35:38.496Z,17.00
2023-05-09T03:38:06.265Z,16.20
2023-05-09T03:40:34.118Z,15.30
2023-05-09T03:43:01.876Z,16.20
2023-05-09T03:45:29.608Z,16.00
2023-05-09T03:47:57.438Z,18.20
2023-05-09T03:50:25.550Z,16.60
2023-05-09T03:52:55.193Z,17.20
2023-05-09T03:55:23.836Z,17.20
2023-05-09T03:57:52.027Z,17.40
2023-05-09T04:00:21.813Z,15.10
2023-05-09T04:02:50.391Z,16.10
2023-05-09T04:05:18.728Z,16.00
2023-05-09T04:07:46.612Z,16.10
2023-05-09T04:10:14.395Z,17.50
2023-05-09T04:12:42.230Z,19.40
2023-05-09T04:15:11.143Z,20.40
2023-05-09T04:17:39.248Z,21.00
2023-05-09T04:20:08.336Z,15.50
2023-05-09T04:22:36.341Z,14.40
2023-05-09T04:25:04.794Z,14.10
2023-05-09T04:27:32.620Z,12.70
2023-05-09T04:30:00.485Z,12.50
2023-05-09T04:32:28.313Z,12.20
2023-05-09T04:34:56.165Z,12.70
2023-05-09T04:37:23.999Z,12.70
2023-05-09T04:39:51.961Z,11.60
2023-05-09T04:42:19.832Z,11.80
2023-05-09T04:44:49.405Z,11.90
2023-05-09T04:47:17.312Z,11.70
2023-05-09T04:49:45.176Z,11.30
2023-05-09T04:52:12.939Z,10.70
2023-05-09T04:54:41.092Z,11.10
2023-05-09T04:57:17.273Z,11.20
2023-05-09T04:59:46.135Z,10.90
2023-05-09T05:02:13.947Z,10.60
2023-05-09T05:04:41.948Z,10.20
2023-05-09T05:07:09.838Z,10.80
2023-05-09T05:09:37.658Z,10.50
2023-05-09T05:12:08.372Z,10.30
2023-05-09T05:14:37.326Z,9.50
2023-05-09T05:17:05.248Z,9.70
2023-05-09T05:19:33.162Z,9.80
2023-05-09T05:22:00.874Z,8.80
2023-05-09T05:24:28.588Z,8.40
2023-05-09T05:26:56.365Z,8.90
2023-05-09T05:29:24.402Z,8.30
2023-05-09T05:31:52.423Z,7.40
2023-05-09T05:34:20.520Z,8.20
2023-05-09T05:36:48.245Z,8.00
2023-05-09T05:39:16.198Z,7.90
2023-05-09T05:41:44.001Z,7.40
2023-05-09T05:44:11.832Z,7.90
2023-05-09T05:46:39.606Z,7.40
2023-05-09T05:49:07.473Z,7.00
2023-05-09T05:51:35.385Z,7.00
2023-05-09T05:54:03.437Z,6.70
2023-05-09T05:56:31.212Z,6.40
2023-05-09T05:58:59.071Z,7.00
2023-05-09T06:01:26.936Z,6.20
2023-05-09T06:03:56.076Z,5.90
2023-05-09T06:06:24.378Z,6.40
2023-05-09T06:08:52.303Z,6.20
2023-05-09T06:11:20.112Z,5.70
2023-05-09T06:13:48.161Z,5.90
2023-05-09T06:16:19.922Z,5.60
2023-05-09T06:18:48.710Z,6.10
2023-05-09T06:21:16.662Z,6.10
2023-05-09T06:24:01.414Z,5.80
2023-05-09T06:26:32.408Z,5.70
2023-05-09T06:29:00.259Z,6.00
2023-05-09T06:31:28.136Z,5.10
2023-05-09T06:33:55.946Z,4.90
2023-05-09T06:36:23.692Z,5.00
2023-05-09T06:38:51.524Z,6.40
2023-05-09T06:41:19.323Z,6.40
2023-05-09T06:43:47.855Z,4.90
2023-05-09T06:46:15.899Z,5.60
2023-05-09T06:48:43.795Z,5.20
2023-05-09T06:51:11.680Z,6.30
2023-05-09T06:53:39.429Z,6.40
2023-05-09T06:56:07.303Z,7.40
2023-05-09T06:58:35.265Z,5.80
2023-05-09T07:01:04.513Z,5.60
2023-05-09T07:03:32.384Z,6.00
2023-05-09T07:06:00.216Z,6.10
2023-05-09T07:08:28.027Z,6.00
2023-05-09T07:10:55.942Z,5.30
2023-05-09T07:13:23.869Z,4.60
2023-05-09T07:15:51.830Z,5.40
2023-05-09T07:18:19.752Z,4.90
2023-05-09T07:20:47.902Z,5.10
2023-05-09T07:23:15.938Z,4.50
2023-05-09T07:25:45.246Z,4.20
2023-05-09T07:28:15.067Z,5.30
2023-05-09T07:30:43.747Z,5.30
2023-05-09T07:33:11.624Z,5.50
2023-05-09T07:35:42.253Z,4.50
2023-05-09T07:38:11.085Z,4.10
2023-05-09T07:40:38.965Z,3.60
2023-05-09T07:43:06.843Z,4.00
2023-05-09T07:45:34.975Z,3.80
2023-05-09T07:48:02.881Z,3.20
2023-05-09T07:50:30.802Z,3.60
2023-05-09T07:52:59.719Z,3.10
2023-05-09T07:55:27.649Z,3.30
2023-05-09T07:57:55.565Z,3.10
2023-05-09T08:00:24.127Z,2.50
2023-05-09T08:02:52.570Z,2.80
2023-05-09T08:05:20.622Z,1.90
2023-05-09T08:07:48.506Z,2.20
2023-05-09T08:12:19.164Z,2.60
2023-05-09T08:14:46.332Z,2.20
2023-05-09T08:17:12.924Z,2.20
2023-05-09T08:19:39.380Z,2.30
2023-05-09T08:22:05.971Z,2.10
2023-05-09T08:24:32.577Z,2.20
2023-05-09T08:26:59.503Z,2.20
2023-05-09T08:29:26.340Z,2.30
2023-05-09T08:31:53.180Z,2.00
2023-05-09T08:34:20.700Z,2.20
2023-05-09T08:36:47.694Z,2.40
2023-05-09T08:39:14.322Z,2.20
2023-05-09T08:41:41.771Z,2.30
2023-05-09T08:44:08.730Z,2.20
2023-05-09T08:46:39.160Z,2.40
2023-05-09T08:49:08.463Z,2.40
2023-05-09T08:51:35.984Z,2.60
2023-05-09T08:54:03.093Z,2.50
2023-05-09T08:56:31.499Z,2.30
2023-05-09T08:58:58.366Z,2.50
2023-05-09T09:01:26.252Z,2.20
2023-05-09T09:03:53.805Z,2.20
2023-05-09T09:06:21.919Z,2.90
2023-05-09T09:08:48.696Z,2.10
2023-05-09T09:11:15.812Z,2.30
2023-05-09T09:13:43.598Z,2.20
2023-05-09T09:16:14.436Z,2.50
2023-05-09T09:18:41.068Z,2.30
2023-05-09T09:21:10.106Z,2.20
2023-05-09T09:23:40.143Z,2.30
2023-05-09T09:26:06.814Z,2.20
2023-05-09T09:28:34.309Z,2.50
2023-05-09T09:31:01.297Z,2.50
2023-05-09T09:33:29.185Z,2.40
2023-05-09T09:35:56.455Z,1.90
2023-05-09T09:38:24.216Z,2.50
2023-05-09T09:40:55.496Z,2.70
2023-05-09T09:43:30.204Z,2.80
2023-05-09T09:46:01.044Z,2.60
2023-05-09T09:48:35.195Z,2.30
2023-05-09T09:51:09.418Z,2.00
2023-05-09T09:53:43.109Z,2.30
2023-05-09T09:56:10.088Z,2.20
2023-05-09T09:58:36.612Z,1.90
2023-05-09T10:01:08.649Z,1.90
2023-05-09T10:03:44.636Z,1.90
2023-05-09T10:06:13.958Z,2.30
2023-05-09T10:08:42.391Z,2.20
2023-05-09T10:11:09.850Z,2.50
2023-05-09T10:13:38.230Z,2.40
2023-05-09T10:16:08.374Z,2.10
2023-05-09T10:18:35.833Z,2.40
2023-05-09T10:21:04.590Z,2.30
2023-05-09T10:23:32.717Z,2.00
2023-05-09T10:26:22.226Z,2.30
2023-05-09T10:28:49.442Z,2.00
2023-05-09T10:31:23.117Z,2.00
2023-05-09T10:33:50.883Z,2.00
2023-05-09T10:36:20.220Z,1.70
2023-05-09T10:38:48.453Z,2.10
2023-05-09T10:41:18.096Z,1.90
2023-05-09T10:43:45.592Z,2.00
2023-05-09T10:46:12.995Z,2.10
2023-05-09T10:48:40.569Z,2.40
2023-05-09T10:51:07.753Z,1.80
2023-05-09T10:53:55.612Z,2.20
2023-05-09T10:56:42.793Z,2.00
2023-05-09T10:59:33.694Z,2.20
2023-05-09T11:02:02.277Z,2.10
2023-05-09T11:04:31.647Z,2.00
2023-05-09T11:07:01.271Z,2.00
2023-05-09T11:09:37.449Z,2.20
2023-05-09T11:12:09.788Z,2.80
2023-05-09T11:14:55.443Z,2.80
2023-05-09T11:17:24.733Z,2.10
2023-05-09T11:19:51.204Z,1.70
2023-05-09T11:22:31.692Z,2.10
2023-05-09T11:25:07.577Z,1.70
2023-05-09T11:27:49.968Z,1.90
2023-05-09T11:30:19.300Z,2.20
2023-05-09T11:32:53.086Z,1.80
2023-05-09T11:36:29.714Z,2.30
2023-05-09T11:39:08.689Z,1.70
2023-05-09T11:41:56.683Z,1.90
2023-05-09T11:44:23.774Z,2.30
2023-05-09T11:46:50.287Z,2.40
2023-05-09T11:49:18.860Z,1.80
2023-05-09T11:51:45.322Z,2.00
2023-05-09T11:54:14.288Z,2.10
2023-05-09T11:56:41.495Z,1.80
2023-05-09T11:59:09.883Z,1.90
2023-05-09T12:01:36.847Z,2.20
2023-05-09T12:04:06.847Z,1.90
2023-05-09T12:06:33.730Z,2.00
2023-05-09T12:09:00.215Z,1.80
2023-05-09T12:11:31.605Z,2.00
2023-05-09T12:13:58.300Z,1.90
2023-05-09T12:16:24.793Z,1.70
2023-05-09T12:18:52.712Z,1.80
2023-05-09T12:21:22.134Z,1.70
2023-05-09T12:23:51.273Z,1.60
2023-05-09T12:26:22.031Z,1.60
2023-05-09T12:28:49.518Z,2.10
2023-05-09T12:31:16.734Z,1.70
2023-05-09T12:33:43.319Z,1.60
2023-05-09T12:36:12.401Z,1.70
2023-05-09T12:38:39.300Z,1.70
2023-05-09T12:41:15.439Z,1.70
2023-05-09T12:43:48.425Z,1.90
2023-05-09T12:46:22.177Z,1.90
2023-05-09T12:48:49.335Z,1.70
2023-05-09T12:51:21.220Z,1.70
2023-05-09T12:53:48.000Z,1.70
2023-05-09T12:56:23.649Z,2.70
2023-05-09T12:58:52.829Z,1.80
2023-05-09T13:01:21.756Z,1.90
2023-05-09T13:04:00.256Z,1.90
2023-05-09T13:06:27.127Z,1.90
2023-05-09T13:09:01.839Z,1.80
2023-05-09T13:11:29.018Z,1.70
2023-05-09T13:13:55.744Z,1.80
2023-05-09T13:16:22.622Z,2.20
2023-05-09T13:18:49.338Z,1.70
2023-05-09T13:21:15.878Z,1.90
2023-05-09T13:23:43.888Z,1.60
2023-05-09T13:26:10.519Z,1.90
2023-05-09T13:28:37.066Z,1.70
2023-05-09T13:31:03.686Z,1.70
2023-05-09T13:33:30.455Z,1.60
2023-05-09T13:35:57.052Z,2.20
2023-05-09T13:38:23.735Z,1.60
2023-05-09T13:40:50.948Z,2.10
2023-05-09T13:43:17.535Z,1.80
2023-05-09T13:45:44.040Z,2.30
2023-05-09T13:48:11.350Z,1.80
2023-05-09T13:50:37.947Z,2.10
2023-05-09T13:53:04.504Z,2.10
2023-05-09T13:55:31.069Z,1.90
2023-05-09T13:57:57.696Z,1.50
2023-05-09T14:00:25.903Z,1.80
2023-05-09T14:02:52.398Z,1.70
2023-05-09T14:05:19.280Z,1.90
2023-05-09T14:07:45.829Z,1.70
2023-05-09T14:10:12.591Z,2.00
2023-05-09T14:12:39.877Z,1.90
2023-05-09T14:15:07.829Z,1.50
2023-05-09T14:17:34.588Z,1.70
2023-05-09T14:20:01.224Z,2.00
2023-05-09T14:22:27.781Z,2.50
2023-05-09T14:24:56.673Z,2.20
2023-05-09T14:39:20.452Z,2.10
2023-05-09T14:41:49.485Z,2.00
2023-05-09T14:44:16.939Z,2.50
2023-05-09T14:46:44.202Z,2.90
2023-05-09T14:49:10.887Z,1.90
2023-05-09T14:51:37.409Z,1.80
2023-05-09T14:54:04.700Z,2.10
2023-05-09T14:56:31.400Z,1.90
2023-05-09T14:58:57.937Z,2.10
2023-05-09T15:01:24.743Z,1.70
2023-05-09T15:03:51.447Z,1.80
2023-05-09T15:06:18.217Z,1.80
2023-05-09T15:08:44.826Z,1.70
2023-05-09T15:11:11.477Z,1.90
2023-05-09T15:13:38.136Z,1.90
2023-05-09T15:16:04.936Z,2.20
2023-05-09T15:18:33.190Z,1.70
2023-05-09T15:21:00.510Z,1.80
2023-05-09T15:23:27.457Z,2.00
2023-05-09T15:25:54.049Z,2.00
2023-05-09T15:28:20.484Z,1.80
2023-05-09T15:30:47.996Z,2.30
2023-05-09T15:33:14.565Z,2.60
2023-05-09T15:35:41.801Z,2.00
2023-05-09T15:38:11.449Z,1.80
2023-05-09T15:40:40.463Z,2.30
2023-05-09T15:43:08.466Z,2.60
2023-05-09T15:45:37.303Z,1.80
2023-05-09T15:48:04.338Z,2.00
2023-05-09T15:50:31.019Z,2.10
2023-05-09T15:52:57.661Z,1.90
2023-05-09T15:55:24.554Z,1.80
2023-05-09T15:57:52.084Z,1.80
2023-05-09T16:00:19.006Z,2.00
2023-05-09T16:02:45.585Z,1.70
2023-05-09T16:05:12.443Z,2.30
2023-05-09T16:07:43.583Z,2.40
2023-05-09T16:10:10.240Z,2.30
2023-05-09T16:12:36.904Z,3.30
2023-05-09T16:15:04.711Z,2.50
2023-05-09T16:17:31.352Z,2.00
2023-05-09T16:19:58.352Z,2.30
2023-05-09T16:22:25.582Z,2.00
2023-05-09T16:24:52.398Z,3.70
2023-05-09T16:27:20.009Z,3.00
2023-05-09T16:29:46.533Z,3.10
2023-05-09T16:32:13.089Z,2.60
2023-05-09T16:34:39.810Z,2.40
2023-05-09T16:37:06.399Z,2.60
2023-05-09T16:39:32.939Z,2.00
2023-05-09T16:41:59.919Z,2.00
2023-05-09T16:44:26.846Z,2.10
2023-05-09T16:46:56.813Z,2.10
2023-05-09T16:49:23.508Z,2.40
2023-05-09T16:51:50.183Z,2.20
2023-05-09T16:54:16.816Z,2.30
2023-05-09T16:56:43.499Z,1.90
2023-05-09T16:59:10.152Z,2.40
2023-05-09T17:01:37.236Z,2.20
2023-05-09T17:04:06.129Z,2.10
2023-05-09T17:06:33.689Z,2.50
2023-05-09T17:09:03.590Z,2.30
2023-05-09T17:11:38.969Z,2.60
2023-05-09T17:14:06.070Z,4.60
2023-05-09T17:16:33.468Z,3.20
2023-05-09T17:19:01.739Z,2.60
2023-05-09T17:21:28.900Z,3.90
2023-05-09T17:23:56.457Z,2.90
2023-05-09T17:26:36.562Z,2.90
2023-05-09T17:29:06.440Z,3.80
2023-05-09T17:31:33.294Z,3.20
2023-05-09T17:34:19.820Z,3.20
2023-05-09T17:36:48.227Z,3.00
2023-05-09T17:39:17.792Z,2.70
2023-05-09T17:41:45.829Z,3.30
2023-05-09T17:44:18.410Z,2.60
2023-05-09T17:46:48.491Z,3.20
2023-05-09T17:49:17.305Z,2.60
2023-05-09T17:51:45.358Z,2.60
2023-05-09T17:54:13.447Z,2.70
2023-05-09T17:56:42.268Z,2.90
2023-05-09T17:59:10.628Z,3.00
2023-05-09T18:01:38.837Z,3.00
2023-05-09T18:04:07.966Z,2.90
2023-05-09T18:06:36.731Z,3.10
2023-05-09T18:09:06.133Z,3.20
2023-05-09T18:11:35.262Z,3.50
2023-05-09T18:14:03.729Z,2.60
2023-05-09T18:16:34.066Z,3.00
2023-05-09T18:19:02.208Z,2.80
2023-05-09T18:21:32.263Z,3.30
2023-05-09T18:24:01.418Z,3.30
2023-05-09T18:26:29.698Z,3.20
2023-05-09T18:28:58.275Z,4.10
2023-05-09T18:31:26.541Z,4.40
2023-05-09T18:33:54.711Z,4.30
2023-05-09T18:36:22.944Z,4.40
2023-05-09T18:38:52.902Z,4.50
2023-05-09T18:41:22.354Z,4.30
2023-05-09T18:43:50.561Z,3.70
2023-05-09T18:46:21.447Z,4.00
2023-05-09T18:48:53.901Z,4.40
2023-05-09T18:51:21.883Z,4.40
2023-05-09T18:53:49.722Z,4.70
2023-05-09T18:56:20.523Z,4.40
2023-05-09T18:58:52.463Z,4.30
2023-05-09T19:01:20.671Z,4.30
2023-05-09T19:03:54.092Z,3.40
2023-05-09T19:06:22.399Z,4.10
2023-05-09T19:08:50.310Z,3.30
2023-05-09T19:11:18.470Z,3.30
2023-05-09T19:13:49.321Z,3.20
2023-05-09T19:16:19.869Z,3.70
2023-05-09T19:18:48.949Z,3.80
2023-05-09T19:21:18.999Z,3.30
2023-05-09T19:23:59.487Z,3.60
2023-05-09T19:26:34.143Z,3.60
2023-05-09T19:29:11.160Z,3.70
2023-05-09T19:31:39.463Z,4.00
2023-05-09T19:34:07.706Z,3.40
2023-05-09T19:36:36.130Z,3.60
2023-05-09T19:39:11.465Z,3.30
2023-05-09T19:41:43.284Z,3.40
2023-05-09T19:44:12.266Z,4.40
2023-05-09T19:46:43.086Z,4.10
2023-05-09T19:49:11.860Z,3.80
2023-05-09T19:51:39.901Z,4.20
2023-05-09T19:54:09.634Z,4.30
2023-05-09T19:56:37.583Z,4.70
2023-05-09T19:59:23.912Z,5.30
2023-05-09T20:01:51.911Z,6.40
2023-05-09T20:04:21.962Z,8.80
2023-05-09T20:06:50.743Z,7.10
2023-05-09T20:09:21.101Z,5.30
2023-05-09T20:11:50.749Z,5.30
2023-05-09T20:14:19.235Z,5.90
2023-05-09T20:16:47.176Z,4.80
2023-05-09T20:19:15.735Z,4.30
2023-05-09T20:21:43.685Z,4.60
2023-05-09T20:24:11.952Z,3.80
2023-05-09T20:26:39.840Z,4.20
2023-05-09T20:29:08.072Z,4.40
2023-05-09T20:31:36.115Z,4.00
2023-05-09T20:34:04.164Z,4.70
2023-05-09T20:36:32.608Z,4.40
2023-05-09T20:39:00.510Z,3.90
2023-05-09T20:41:28.491Z,4.40
2023-05-09T20:44:03.405Z,4.60
2023-05-09T20:46:31.340Z,4.00
2023-05-09T20:48:59.146Z,6.70
2023-05-09T20:51:27.022Z,6.30
2023-05-09T20:53:54.790Z,4.60
2023-05-09T20:56:22.643Z,4.40
2023-05-09T20:58:50.672Z,4.00
2023-05-09T21:01:18.685Z,4.20
2023-05-09T21:03:46.737Z,4.00
2023-05-09T21:06:14.664Z,5.50
2023-05-09T21:08:43.371Z,4.30
2023-05-09T21:11:11.408Z,5.40
2023-05-09T21:13:39.289Z,5.50
2023-05-09T21:16:07.201Z,5.10
2023-05-09T21:18:35.179Z,4.80
2023-05-09T21:21:07.346Z,6.00
2023-05-09T21:23:35.458Z,5.40
2023-05-09T21:26:03.360Z,4.80
2023-05-09T21:28:31.510Z,5.10
2023-05-09T21:31:01.755Z,5.70
2023-05-09T21:33:30.032Z,4.30
2023-05-09T21:35:59.186Z,4.80
2023-05-09T21:38:27.015Z,4.60
2023-05-09T21:40:55.361Z,4.80
2023-05-09T21:43:23.356Z,4.90
2023-05-09T21:45:51.222Z,4.40
2023-05-09T21:48:19.083Z,4.10
2023-05-09T21:50:47.164Z,4.60
2023-05-09T21:53:14.993Z,4.60
2023-05-09T21:55:42.774Z,4.80
2023-05-09T21:58:10.606Z,5.30
2023-05-09T22:00:38.501Z,4.80
2023-05-09T22:03:06.513Z,4.30
2023-05-09T22:05:34.418Z,4.50
2023-05-09T22:08:02.253Z,4.70
2023-05-09T22:10:30.116Z,4.60
2023-05-09T22:12:58.351Z,4.30
2023-05-09T22:15:27.128Z,4.70
2023-05-09T22:17:54.939Z,4.30
2023-05-09T22:20:22.901Z,4.60
2023-05-09T22:22:50.848Z,4.50
2023-05-09T22:25:18.728Z,4.70
2023-05-09T22:27:46.584Z,4.80
2023-05-09T22:30:14.725Z,4.80
2023-05-09T22:32:43.279Z,4.50
2023-05-09T22:35:11.273Z,4.80
2023-05-09T22:37:39.032Z,4.50
2023-05-09T22:40:07.751Z,4.20
2023-05-09T22:42:35.902Z,4.10
2023-05-09T22:45:04.059Z,4.40
2023-05-09T22:47:31.992Z,4.30
2023-05-09T22:49:59.851Z,5.20
2023-05-09T22:52:27.725Z,3.80
2023-05-09T22:54:55.583Z,4.40
2023-05-09T22:57:23.925Z,4.10
2023-05-09T22:59:53.245Z,4.30
2023-05-09T23:02:21.740Z,4.50
2023-05-09T23:04:49.661Z,4.10
2023-05-09T23:07:17.613Z,4.40
2023-05-09T23:09:45.437Z,4.30
2023-05-09T23:12:13.293Z,4.10
2023-05-09T23:14:41.207Z,4.50
2023-05-09T23:17:09.032Z,4.90
2023-05-09T23:19:37.350Z,4.60
2023-05-09T23:22:05.280Z,4.60
2023-05-09T23:24:33.075Z,4.20
2023-05-09T23:27:02.541Z,4.70
2023-05-09T23:29:30.576Z,4.60
2023-05-09T23:31:58.532Z,4.90
2023-05-09T23:34:26.324Z,4.40
2023-05-09T23:36:54.151Z,4.60
2023-05-09T23:39:22.251Z,4.40
2023-05-09T23:41:50.155Z,4.50
2023-05-09T23:44:18.150Z,4.30
2023-05-09T23:46:46.074Z,4.10
2023-05-09T23:49:14.661Z,4.60
2023-05-09T23:52:00.669Z,5.10
2023-05-09T23:54:28.705Z,5.30
2023-05-09T23:56:57.395Z,5.30
2023-05-09T23:59:25.326Z,5.90
